createdAt,value
2022-08-21T00:02:02.140Z,5.18
2022-08-21T00:04:30.084Z,6.95
2022-08-21T00:06:57.235Z,6.40
2022-08-21T00:09:23.673Z,5.97
2022-08-21T00:11:50.214Z,6.78
2022-08-21T00:14:17.005Z,6.10
2022-08-21T00:16:43.639Z,5.25
2022-08-21T00:19:10.139Z,6.70
2022-08-21T00:21:37.113Z,7.15
2022-08-21T00:24:04.606Z,6.57
2022-08-21T00:26:31.068Z,6.88
2022-08-21T00:28:58.411Z,5.70
2022-08-21T00:31:25.951Z,7.15
2022-08-21T00:33:52.576Z,6.50
2022-08-21T00:36:24.453Z,5.47
2022-08-21T00:38:50.920Z,5.05
2022-08-21T00:41:36.838Z,7.10
2022-08-21T00:44:04.845Z,7.70
2022-08-21T00:46:31.482Z,6.47
2022-08-21T00:48:58.816Z,4.88
2022-08-21T00:51:46.471Z,6.93
2022-08-21T00:54:18.967Z,5.63
2022-08-21T00:56:47.993Z,6.88
2022-08-21T00:59:15.078Z,5.05
2022-08-21T01:01:41.565Z,8.23
2022-08-21T01:04:08.330Z,5.60
2022-08-21T01:06:36.074Z,5.78
2022-08-21T01:09:03.598Z,8.15
2022-08-21T01:11:30.572Z,8.50
2022-08-21T01:13:57.155Z,7.45
2022-08-21T01:16:23.829Z,7.63
2022-08-21T01:18:51.281Z,10.10
2022-08-21T01:21:20.502Z,6.70
2022-08-21T01:26:17.075Z,6.15
2022-08-21T01:28:57.718Z,6.78
2022-08-21T01:31:26.755Z,7.63
2022-08-21T01:33:54.220Z,7.05
2022-08-21T01:36:21.024Z,6.90
2022-08-21T01:38:48.176Z,7.47
2022-08-21T01:41:15.617Z,7.13
2022-08-21T01:43:43.012Z,8.45
2022-08-21T01:46:10.117Z,7.60
2022-08-21T01:48:37.276Z,7.50
2022-08-21T01:51:04.285Z,7.57
2022-08-21T01:53:33.510Z,9.73
2022-08-21T01:56:00.994Z,8.77
2022-08-21T01:58:27.449Z,8.25
2022-08-21T02:00:54.346Z,6.00
2022-08-21T02:03:26.436Z,8.70
2022-08-21T02:06:01.765Z,6.57
2022-08-21T02:08:29.275Z,8.63
2022-08-21T02:10:55.758Z,6.80
2022-08-21T02:13:22.409Z,9.50
2022-08-21T02:15:49.369Z,7.68
2022-08-21T02:18:15.951Z,7.80
2022-08-21T02:20:49.314Z,7.00
2022-08-21T02:25:53.699Z,6.50
2022-08-21T02:28:20.161Z,7.32
2022-08-21T02:30:48.132Z,5.63
2022-08-21T02:33:15.700Z,7.57
2022-08-21T02:35:43.232Z,7.97
2022-08-21T02:38:14.796Z,8.38
2022-08-21T02:40:43.910Z,8.90
2022-08-21T02:43:16.070Z,7.15
2022-08-21T02:45:43.604Z,8.98
2022-08-21T02:48:12.689Z,9.02
2022-08-21T02:50:43.187Z,9.02
2022-08-21T02:53:11.550Z,9.10
2022-08-21T02:55:38.869Z,10.90
2022-08-21T02:58:08.411Z,9.65
2022-08-21T03:00:36.699Z,7.50
2022-08-21T03:03:04.589Z,7.78
2022-08-21T03:05:34.361Z,8.43
2022-08-21T03:08:02.258Z,8.48
2022-08-21T03:10:29.919Z,6.43
2022-08-21T03:13:04.100Z,7.15
2022-08-21T03:15:30.946Z,8.68
2022-08-21T03:17:57.405Z,6.70
2022-08-21T03:20:27.798Z,9.20
2022-08-21T03:22:55.317Z,7.10
2022-08-21T03:25:39.551Z,6.95
2022-08-21T03:28:12.930Z,8.23
2022-08-21T03:30:43.180Z,8.95
2022-08-21T03:33:13.068Z,8.35
2022-08-21T03:35:43.667Z,9.35
2022-08-21T03:38:10.655Z,8.60
2022-08-21T03:40:37.190Z,7.18
2022-08-21T03:43:03.696Z,8.40
2022-08-21T03:45:30.284Z,10.30
2022-08-21T03:48:00.894Z,8.77
2022-08-21T03:50:30.891Z,8.75
2022-08-21T03:52:57.837Z,9.05
2022-08-21T03:55:25.317Z,9.07
2022-08-21T03:57:52.009Z,8.82
2022-08-21T04:00:19.902Z,9.23
2022-08-21T04:02:46.574Z,6.90
2022-08-21T04:05:14.767Z,6.45
2022-08-21T04:07:41.255Z,9.50
2022-08-21T04:10:08.524Z,7.00
2022-08-21T04:12:34.989Z,10.63
2022-08-21T04:15:02.789Z,8.60
2022-08-21T04:17:29.328Z,7.40
2022-08-21T04:19:55.985Z,7.53
2022-08-21T04:22:22.948Z,6.85
2022-08-21T04:24:49.417Z,9.25
2022-08-21T04:27:15.889Z,8.98
2022-08-21T04:29:42.319Z,7.60
2022-08-21T04:32:08.822Z,10.63
2022-08-21T04:34:35.312Z,7.55
2022-08-21T04:37:01.776Z,6.60
2022-08-21T04:39:29.723Z,7.63
2022-08-21T04:41:56.643Z,8.25
2022-08-21T04:44:23.261Z,9.43
2022-08-21T04:46:49.718Z,9.23
2022-08-21T04:49:16.296Z,9.43
2022-08-21T04:51:42.810Z,9.13
2022-08-21T04:54:21.840Z,8.13
2022-08-21T04:56:51.464Z,7.82
2022-08-21T04:59:29.259Z,9.85
2022-08-21T05:01:57.619Z,6.97
2022-08-21T05:04:27.341Z,7.40
2022-08-21T05:06:56.181Z,8.55
2022-08-21T05:09:23.116Z,8.70
2022-08-21T05:11:49.802Z,7.50
2022-08-21T05:14:16.957Z,7.07
2022-08-21T05:16:44.811Z,6.72
2022-08-21T05:19:12.185Z,11.65
2022-08-21T05:21:42.687Z,6.55
2022-08-21T05:24:09.184Z,6.57
2022-08-21T05:26:45.287Z,7.20
2022-08-21T05:29:14.980Z,7.13
2022-08-21T05:31:41.576Z,8.67
2022-08-21T05:34:08.046Z,7.82
2022-08-21T05:36:34.902Z,9.38
2022-08-21T05:39:03.058Z,7.53
2022-08-21T05:41:29.609Z,8.07
2022-08-21T05:43:56.065Z,7.55
2022-08-21T05:46:22.653Z,8.02
2022-08-21T05:48:49.720Z,10.38
2022-08-21T05:51:16.839Z,6.10
2022-08-21T05:53:44.189Z,7.95
2022-08-21T05:56:11.839Z,7.32
2022-08-21T05:58:38.852Z,8.00
2022-08-21T06:01:06.073Z,11.70
2022-08-21T06:03:35.635Z,7.97
2022-08-21T06:06:02.676Z,10.05
2022-08-21T06:08:30.158Z,6.85
2022-08-21T06:10:58.636Z,8.52
2022-08-21T06:13:25.648Z,9.02
2022-08-21T06:16:02.440Z,9.30
2022-08-21T06:18:28.974Z,9.20
2022-08-21T06:20:55.629Z,10.25
2022-08-21T06:23:24.365Z,7.05
2022-08-21T06:26:00.311Z,11.02
2022-08-21T06:28:26.813Z,6.57
2022-08-21T06:30:53.396Z,6.55
2022-08-21T06:33:20.455Z,7.28
2022-08-21T06:35:46.888Z,8.48
2022-08-21T06:38:13.505Z,10.98
2022-08-21T06:40:43.890Z,6.35
2022-08-21T06:43:16.996Z,10.05
2022-08-21T06:48:14.537Z,8.25
2022-08-21T06:50:43.477Z,7.78
2022-08-21T06:53:14.001Z,7.97
2022-08-21T06:55:40.955Z,8.93
2022-08-21T06:58:07.884Z,8.05
2022-08-21T07:00:35.790Z,9.07
2022-08-21T07:03:02.407Z,9.20
2022-08-21T07:05:32.304Z,10.07
2022-08-21T07:07:58.915Z,8.13
2022-08-21T07:10:26.636Z,7.30
2022-08-21T07:13:00.551Z,6.53
2022-08-21T07:15:30.467Z,8.38
2022-08-21T07:20:24.435Z,7.97
2022-08-21T07:22:50.943Z,11.57
2022-08-21T07:25:17.444Z,7.28
2022-08-21T07:27:43.889Z,7.13
2022-08-21T07:30:10.743Z,6.72
2022-08-21T07:32:37.267Z,7.20
2022-08-21T07:35:04.548Z,9.38
2022-08-21T07:37:31.039Z,10.77
2022-08-21T07:39:57.617Z,8.75
2022-08-21T07:42:24.291Z,6.30
2022-08-21T07:44:53.149Z,6.50
2022-08-21T07:47:41.268Z,9.05
2022-08-21T07:50:10.811Z,8.40
2022-08-21T07:52:37.848Z,6.72
2022-08-21T07:55:06.570Z,9.35
2022-08-21T07:57:33.574Z,9.15
2022-08-21T08:00:00.150Z,8.57
2022-08-21T08:02:30.590Z,6.55
2022-08-21T08:05:04.528Z,6.88
2022-08-21T08:07:31.374Z,7.78
2022-08-21T08:09:58.848Z,10.82
2022-08-21T08:12:30.543Z,9.95
2022-08-21T08:15:00.912Z,7.72
2022-08-21T08:17:27.703Z,8.98
2022-08-21T08:19:54.790Z,9.23
2022-08-21T08:22:24.823Z,6.45
2022-08-21T08:24:52.692Z,12.93
2022-08-21T08:27:20.493Z,7.65
2022-08-21T08:29:48.285Z,6.13
2022-08-21T08:32:14.893Z,8.25
2022-08-21T08:34:41.387Z,7.47
2022-08-21T08:37:09.688Z,8.20
2022-08-21T08:39:36.462Z,10.02
2022-08-21T08:42:34.067Z,7.70
2022-08-21T08:45:04.416Z,8.55
2022-08-21T08:47:32.307Z,8.50
2022-08-21T08:50:18.652Z,10.55
2022-08-21T08:53:07.980Z,10.80
2022-08-21T08:55:38.572Z,9.45
2022-08-21T08:58:05.183Z,9.65
2022-08-21T09:00:31.953Z,8.35
2022-08-21T09:03:01.090Z,7.57
2022-08-21T09:05:41.839Z,8.32
2022-08-21T09:08:19.067Z,9.07
2022-08-21T09:11:01.814Z,9.67
2022-08-21T09:13:50.669Z,7.88
2022-08-21T09:16:35.631Z,12.15
2022-08-21T09:19:04.928Z,7.45
2022-08-21T09:21:42.779Z,8.95
2022-08-21T09:24:33.005Z,8.95
2022-08-21T09:27:18.954Z,9.38
2022-08-21T09:29:51.857Z,10.05
2022-08-21T09:32:36.699Z,8.90
2022-08-21T09:35:10.057Z,9.40
2022-08-21T09:37:57.683Z,9.02
2022-08-21T09:40:33.313Z,5.95
2022-08-21T09:43:04.089Z,8.13
2022-08-21T09:45:34.080Z,10.70
2022-08-21T09:48:20.007Z,8.55
2022-08-21T09:50:48.494Z,7.00
2022-08-21T09:53:43.248Z,9.40
2022-08-21T09:56:46.287Z,7.90
2022-08-21T09:59:36.523Z,6.40
2022-08-21T10:02:28.315Z,5.32
2022-08-21T10:05:00.182Z,6.43
2022-08-21T10:07:28.988Z,7.03
2022-08-21T10:10:04.133Z,7.32
2022-08-21T10:12:55.316Z,11.38
2022-08-21T10:15:56.239Z,7.25
2022-08-21T10:18:37.199Z,9.52
2022-08-21T10:21:19.391Z,7.47
2022-08-21T10:24:11.499Z,6.97
2022-08-21T10:27:06.984Z,8.40
2022-08-21T10:29:46.053Z,6.53
2022-08-21T10:32:27.088Z,8.05
2022-08-21T10:35:18.153Z,7.45
2022-08-21T10:37:56.606Z,8.02
2022-08-21T10:40:28.545Z,7.47
2022-08-21T10:43:32.927Z,8.70
2022-08-21T10:46:17.491Z,7.82
2022-08-21T10:48:55.443Z,6.95
2022-08-21T10:51:39.504Z,6.50
2022-08-21T10:54:18.202Z,7.10
2022-08-21T10:56:52.400Z,6.78
2022-08-21T10:59:29.593Z,7.00
2022-08-21T11:02:16.639Z,6.78
2022-08-21T11:05:01.085Z,6.85
2022-08-21T11:07:34.100Z,6.55
2022-08-21T11:10:08.699Z,10.15
2022-08-21T11:12:42.262Z,6.85
2022-08-21T11:15:30.965Z,4.55
2022-08-21T11:18:38.140Z,6.07
2022-08-21T11:21:26.329Z,7.90
2022-08-21T11:24:05.771Z,5.75
2022-08-21T11:26:40.808Z,7.38
2022-08-21T11:29:13.260Z,7.00
2022-08-21T11:32:15.975Z,6.75
2022-08-21T11:35:15.545Z,5.32
2022-08-21T11:37:55.920Z,6.68
2022-08-21T11:40:56.111Z,5.47
2022-08-21T11:43:37.141Z,6.68
2022-08-21T11:46:18.885Z,7.68
2022-08-21T11:49:16.071Z,8.18
2022-08-21T11:51:50.872Z,7.00
2022-08-21T11:54:36.700Z,9.27
2022-08-21T11:57:08.894Z,6.40
2022-08-21T11:59:50.840Z,7.82
2022-08-21T12:02:21.138Z,4.50
2022-08-21T12:04:53.982Z,6.30
2022-08-21T12:07:44.545Z,7.22
2022-08-21T12:10:15.571Z,6.00
2022-08-21T12:12:44.920Z,6.82
2022-08-21T12:15:20.369Z,7.05
2022-08-21T12:17:57.387Z,4.70
2022-08-21T12:20:57.848Z,8.23
2022-08-21T12:23:44.339Z,5.68
2022-08-21T12:26:19.504Z,7.68
2022-08-21T12:28:45.977Z,7.15
2022-08-21T12:31:20.975Z,4.78
2022-08-21T12:33:53.349Z,4.82
2022-08-21T12:36:26.636Z,5.10
2022-08-21T12:38:59.955Z,7.93
2022-08-21T12:41:42.611Z,6.78
2022-08-21T12:44:17.860Z,4.95
2022-08-21T12:46:52.680Z,6.93
2022-08-21T12:49:35.387Z,6.57
2022-08-21T12:52:04.512Z,5.50
2022-08-21T12:54:33.357Z,8.15
2022-08-21T12:59:29.155Z,5.03
2022-08-21T13:01:56.347Z,7.13
2022-08-21T13:04:35.367Z,6.57
2022-08-21T13:07:02.105Z,5.45
2022-08-21T13:09:30.439Z,4.55
2022-08-21T13:11:57.899Z,4.97
2022-08-21T13:14:28.208Z,7.22
2022-08-21T13:16:59.225Z,7.68
2022-08-21T13:19:26.541Z,5.45
2022-08-21T13:21:53.688Z,7.82
2022-08-21T13:24:43.625Z,6.05
2022-08-21T13:27:26.131Z,5.15
2022-08-21T13:30:11.941Z,5.10
2022-08-21T13:32:43.641Z,4.40
2022-08-21T13:35:20.268Z,7.53
2022-08-21T13:37:48.684Z,6.00
2022-08-21T13:40:18.872Z,5.55
2022-08-21T13:42:47.907Z,7.32
2022-08-21T13:45:26.647Z,5.55
2022-08-21T13:50:21.946Z,4.93
2022-08-21T13:52:54.942Z,5.28
2022-08-21T13:55:21.445Z,6.32
2022-08-21T13:57:47.978Z,4.53
2022-08-21T14:00:20.759Z,6.13
2022-08-21T14:02:49.843Z,4.13
2022-08-21T14:05:38.161Z,5.47
2022-08-21T14:08:14.120Z,6.40
2022-08-21T14:10:55.958Z,5.85
2022-08-21T14:13:42.656Z,5.50
2022-08-21T14:16:13.825Z,5.03
2022-08-21T14:18:54.815Z,6.18
2022-08-21T14:21:36.761Z,5.88
2022-08-21T14:24:13.480Z,5.70
2022-08-21T14:26:47.832Z,5.50
2022-08-21T14:29:16.362Z,4.45
2022-08-21T14:31:44.036Z,4.95
2022-08-21T14:34:19.789Z,6.47
2022-08-21T14:36:47.741Z,3.85
2022-08-21T14:39:14.629Z,4.03
2022-08-21T14:41:41.156Z,4.72
2022-08-21T14:44:09.670Z,6.90
2022-08-21T14:49:10.514Z,7.25
2022-08-21T14:51:37.026Z,6.20
2022-08-21T14:54:14.743Z,5.28
2022-08-21T14:56:41.235Z,4.68
2022-08-21T14:59:08.798Z,4.72
2022-08-21T15:01:45.278Z,6.78
2022-08-21T15:04:12.539Z,4.95
2022-08-21T15:06:39.044Z,7.00
2022-08-21T15:09:06.477Z,5.35
2022-08-21T15:11:42.227Z,7.05
2022-08-21T15:14:13.588Z,5.82
2022-08-21T15:16:40.092Z,4.50
2022-08-21T15:19:06.516Z,7.45
2022-08-21T15:21:33.012Z,5.55
2022-08-21T15:23:59.477Z,3.88
2022-08-21T15:26:26.073Z,6.53
2022-08-21T15:28:52.679Z,4.35
2022-08-21T15:31:19.189Z,4.40
2022-08-21T15:33:45.691Z,4.72
2022-08-21T15:36:12.140Z,4.03
2022-08-21T15:38:38.767Z,5.25
2022-08-21T15:41:05.803Z,4.82
2022-08-21T15:43:49.248Z,6.03
2022-08-21T15:46:17.611Z,5.45
2022-08-21T15:48:44.183Z,5.28
2022-08-21T15:51:11.510Z,6.20
2022-08-21T15:53:40.778Z,5.22
2022-08-21T15:56:10.998Z,5.68
2022-08-21T15:58:37.542Z,4.82
2022-08-21T16:01:04.131Z,5.38
2022-08-21T16:03:30.711Z,6.13
2022-08-21T16:05:58.072Z,5.25
2022-08-21T16:08:25.385Z,5.10
2022-08-21T16:10:53.273Z,5.90
2022-08-21T16:13:26.091Z,4.77
2022-08-21T16:15:53.211Z,3.85
2022-08-21T16:18:20.387Z,8.18
2022-08-21T16:20:46.921Z,5.40
2022-08-21T16:23:13.512Z,6.10
2022-08-21T16:25:41.328Z,4.70
2022-08-21T16:28:10.351Z,6.05
2022-08-21T16:30:38.703Z,3.85
2022-08-21T16:33:06.184Z,5.53
2022-08-21T16:35:32.696Z,4.28
2022-08-21T16:37:59.416Z,3.67
2022-08-21T16:40:27.660Z,4.80
2022-08-21T16:42:54.189Z,4.82
2022-08-21T16:45:24.071Z,5.95
2022-08-21T16:47:51.243Z,5.00
2022-08-21T16:50:22.322Z,6.22
2022-08-21T16:52:49.024Z,4.28
2022-08-21T16:55:15.533Z,5.07
2022-08-21T16:57:42.431Z,8.07
2022-08-21T17:00:13.777Z,4.47
2022-08-21T17:02:44.575Z,5.20
2022-08-21T17:05:14.079Z,6.38
2022-08-21T17:07:41.633Z,4.65
2022-08-21T17:10:09.187Z,4.10
2022-08-21T17:12:35.895Z,4.47
2022-08-21T17:15:12.050Z,6.15
2022-08-21T17:17:38.593Z,5.10
2022-08-21T17:20:05.953Z,5.72
2022-08-21T17:22:32.942Z,4.32
2022-08-21T17:24:59.592Z,3.90
2022-08-21T17:27:28.083Z,4.20
2022-08-21T17:29:55.385Z,5.47
2022-08-21T17:32:23.840Z,5.93
2022-08-21T17:34:50.368Z,5.07
2022-08-21T17:37:16.897Z,3.92
2022-08-21T17:39:43.461Z,4.47
2022-08-21T17:42:13.505Z,4.68
2022-08-21T17:44:42.454Z,5.28
2022-08-21T17:47:09.611Z,5.65
2022-08-21T17:49:36.238Z,4.40
2022-08-21T17:52:03.518Z,5.30
2022-08-21T17:54:30.305Z,3.45
2022-08-21T17:56:57.122Z,3.60
2022-08-21T17:59:24.297Z,4.55
2022-08-21T18:01:50.833Z,4.55
2022-08-21T18:04:17.606Z,5.20
2022-08-21T18:06:44.630Z,5.57
2022-08-21T18:09:12.749Z,5.25
2022-08-21T18:11:41.479Z,4.40
2022-08-21T18:14:08.462Z,6.78
2022-08-21T18:16:37.382Z,4.82
2022-08-21T18:19:08.400Z,4.22
2022-08-21T18:21:35.237Z,4.88
2022-08-21T18:24:01.705Z,3.85
2022-08-21T18:26:34.642Z,6.80
2022-08-21T18:29:01.783Z,5.18
2022-08-21T18:31:30.441Z,7.47
2022-08-21T18:33:58.794Z,6.63
2022-08-21T18:36:27.483Z,4.28
2022-08-21T18:39:04.382Z,5.90
2022-08-21T18:41:40.660Z,5.60
2022-08-21T18:44:07.404Z,3.90
2022-08-21T18:46:33.841Z,2.90
2022-08-21T18:49:00.281Z,5.32
2022-08-21T18:51:26.741Z,3.92
2022-08-21T18:53:56.185Z,6.00
2022-08-21T18:56:22.722Z,4.68
2022-08-21T18:58:50.918Z,4.22
2022-08-21T19:01:17.799Z,6.32
2022-08-21T19:03:45.395Z,4.05
2022-08-21T19:06:12.115Z,4.28
2022-08-21T19:08:38.629Z,4.75
2022-08-21T19:11:06.473Z,5.70
2022-08-21T19:13:33.420Z,5.63
2022-08-21T19:16:03.562Z,3.80
2022-08-21T19:18:32.516Z,3.35
2022-08-21T19:20:58.944Z,3.60
2022-08-21T19:23:29.484Z,5.15
2022-08-21T19:26:00.553Z,4.38
2022-08-21T19:28:36.960Z,4.90
2022-08-21T19:34:04.919Z,4.93
2022-08-21T19:36:32.432Z,4.45
2022-08-21T19:39:00.163Z,5.22
2022-08-21T19:41:28.897Z,4.50
2022-08-21T19:46:27.351Z,6.18
2022-08-21T19:48:54.865Z,4.30
2022-08-21T19:51:23.924Z,4.63
2022-08-21T19:56:27.262Z,4.78
2022-08-21T19:58:54.789Z,4.70
2022-08-21T20:01:22.925Z,5.22
2022-08-21T20:03:53.861Z,4.80
2022-08-21T20:06:21.986Z,5.57
2022-08-21T20:08:51.403Z,4.72
2022-08-21T20:11:31.683Z,5.15
2022-08-21T20:13:59.403Z,4.45
2022-08-21T20:16:28.264Z,4.18
2022-08-21T20:18:55.201Z,5.07
2022-08-21T20:21:21.656Z,4.15
2022-08-21T20:23:49.067Z,3.88
2022-08-21T20:26:16.603Z,4.30
2022-08-21T20:28:44.006Z,3.00
2022-08-21T20:31:10.904Z,4.38
2022-08-21T20:33:41.746Z,4.47
2022-08-21T20:36:08.349Z,5.20
2022-08-21T20:38:36.009Z,5.72
2022-08-21T20:41:03.083Z,4.05
2022-08-21T20:43:31.115Z,3.70
2022-08-21T20:45:57.864Z,6.40
2022-08-21T20:48:27.482Z,4.57
2022-08-21T20:51:12.673Z,6.03
2022-08-21T20:53:48.924Z,4.45
2022-08-21T20:56:25.113Z,4.57
2022-08-21T20:59:32.951Z,4.55
2022-08-21T21:02:36.421Z,5.00
2022-08-21T21:05:18.736Z,5.28
2022-08-21T21:07:57.791Z,4.88
2022-08-21T21:10:33.368Z,5.25
2022-08-21T21:13:09.962Z,5.68
2022-08-21T21:15:36.807Z,3.40
2022-08-21T21:18:19.073Z,4.50
2022-08-21T21:20:50.215Z,5.22
2022-08-21T21:23:28.752Z,5.03
2022-08-21T21:26:32.385Z,6.57
2022-08-21T21:29:12.201Z,4.75
2022-08-21T21:31:41.083Z,5.30
2022-08-21T21:34:07.837Z,4.28
2022-08-21T21:36:56.852Z,4.82
2022-08-21T21:39:43.652Z,5.10
2022-08-21T21:42:35.921Z,5.90
2022-08-21T21:45:25.147Z,4.57
2022-08-21T21:48:08.153Z,4.30
2022-08-21T21:51:00.980Z,4.60
2022-08-21T21:53:55.431Z,4.57
2022-08-21T21:56:30.641Z,3.78
2022-08-21T21:59:14.456Z,7.75
2022-08-21T22:02:02.679Z,5.20
2022-08-21T22:05:08.789Z,6.22
2022-08-21T22:08:08.045Z,4.78
2022-08-21T22:10:57.554Z,3.70
2022-08-21T22:13:38.607Z,4.70
2022-08-21T22:16:06.968Z,3.67
2022-08-21T22:18:44.216Z,4.13
2022-08-21T22:21:18.146Z,5.13
2022-08-21T22:23:52.927Z,5.63
2022-08-21T22:26:33.818Z,5.90
2022-08-21T22:29:05.388Z,6.45
2022-08-21T22:31:34.857Z,7.57
2022-08-21T22:36:50.194Z,6.22
2022-08-21T22:42:24.937Z,3.97
2022-08-21T22:45:01.253Z,4.68
2022-08-21T22:47:35.070Z,5.32
2022-08-21T22:50:05.331Z,5.95
2022-08-21T22:52:35.211Z,5.63
2022-08-21T22:55:15.664Z,5.38
2022-08-21T22:57:43.545Z,4.53
2022-08-21T23:00:20.911Z,5.10
2022-08-21T23:02:52.231Z,6.32
2022-08-21T23:05:30.528Z,4.80
2022-08-21T23:08:36.672Z,6.47
2022-08-21T23:11:13.516Z,5.35
2022-08-21T23:13:44.081Z,5.72
2022-08-21T23:19:42.871Z,3.67
2022-08-21T23:22:51.256Z,3.75
2022-08-21T23:25:32.765Z,6.80
2022-08-21T23:28:33.361Z,3.55
2022-08-21T23:31:19.070Z,3.90
2022-08-21T23:34:25.756Z,4.30
2022-08-21T23:40:41.053Z,4.15
2022-08-21T23:43:41.649Z,3.13
2022-08-21T23:49:30.581Z,3.22
2022-08-21T23:52:16.911Z,4.43
2022-08-21T23:54:52.823Z,4.68
2022-08-21T23:57:39.504Z,4.40
